Time;durP1;ratioP1;P1;durP2;ratioP2;P2;SDS_P1;SDS_P2;PMS_P1;PMS_P2;Temp;Humidity;BMP_temperature;BMP_pressure;BME280_temperature;BME280_humidity;BME280_pressure;Samples;Min_cycle;Max_cycle;Signal;HPM_P1;HPM_P2
2021/11/15 00:02:19;;;;;;;;;;;;;;;7.87;97.30;102685.09;5033543;28;20432;-46
2021/11/15 00:04:46;;;;;;;;;;;;;;;7.83;96.51;102683.47;5048568;28;19967;-49
2021/11/15 00:07:13;;;;;;;;;;;;;;;7.82;96.22;102676.50;5033231;28;19932;-49
2021/11/15 00:09:40;;;;;;;;;;;;;;;7.84;96.44;102673.84;5033285;28;19925;-48
2021/11/15 00:12:07;;;;;;;;;;;;;;;7.87;96.51;102673.78;5031726;28;20292;-48
2021/11/15 00:14:34;;;;;;;;;;;;;;;7.81;97.33;102673.91;5033136;28;19925;-47
2021/11/15 00:17:02;;;;;;;;;;;;;;;7.74;97.56;102673.19;5033034;28;20392;-48
2021/11/15 00:19:28;;;;;;;;;;;;;;;7.69;98.00;102665.47;5048088;28;19933;-50
2021/11/15 00:21:55;;;;;;;;;;;;;;;7.70;97.74;102667.19;5032909;28;19929;-47
2021/11/15 00:24:22;;;;;;;;;;;;;;;7.71;97.64;102671.50;5031794;28;19975;-46
2021/11/15 00:26:48;;;;;;;;;;;;;;;7.83;96.91;102672.97;5033205;28;19926;-48
2021/11/15 00:29:15;;;;;;;;;;;;;;;7.71;97.34;102662.81;5032985;28;19929;-46
2021/11/15 00:31:44;;;;;;;;;;;;;;;7.80;97.52;102665.22;5047576;28;19925;-47
2021/11/15 00:34:11;;;;;;;;;;;;;;;7.76;97.53;102661.78;5032691;28;19932;-47
2021/11/15 00:36:37;;;;;;;;;;;;;;;7.71;97.62;102657.56;5032895;28;20380;-47
2021/11/15 00:39:04;;;;;;;;;;;;;;;7.68;98.05;102660.28;5030391;28;20339;-48
2021/11/15 00:41:31;;;;;;;;;;;;;;;7.67;97.92;102659.38;5030116;28;19968;-46
2021/11/15 00:43:58;;;;;;;;;;;;;;;7.57;98.11;102663.97;5032637;28;19925;-50
2021/11/15 00:46:24;;;;;;;;;;;;;;;7.57;98.35;102660.53;5048324;28;19932;-54
2021/11/15 00:48:55;;;;;;;;;;;;;;;7.55;98.60;102657.06;5032893;28;19925;-55
2021/11/15 00:51:23;;;;;;;;;;;;;;;7.61;98.77;102651.69;5032910;28;20016;-55
2021/11/15 00:53:50;;;;;;;;;;;;;;;7.63;98.02;102654.28;5031384;28;19925;-55
2021/11/15 00:56:16;;;;;;;;;;;;;;;7.65;98.09;102652.47;5031258;28;20043;-53
2021/11/15 00:58:43;;;;;;;;;;;;;;;7.65;97.66;102650.72;5032469;28;19925;-54
2021/11/15 01:01:10;;;;;;;;;;;;;;;7.59;97.40;102654.34;5033204;28;19927;-53
2021/11/15 01:03:37;;;;;;;;;;;;;;;7.53;97.68;102657.09;5014882;28;20273;-50
2021/11/15 01:06:03;;;;;;;;;;;;;;;7.52;98.07;102655.38;5031634;28;20025;-50
2021/11/15 01:08:30;;;;;;;;;;;;;;;7.44;98.82;102657.31;5030401;28;19925;-46
2021/11/15 01:10:56;;;;;;;;;;;;;;;7.55;98.16;102659.69;5032703;28;19936;-52
2021/11/15 01:13:24;;;;;;;;;;;;;;;7.48;98.18;102661.56;5032439;28;20261;-45
2021/11/15 01:15:50;;;;;;;;;;;;;;;7.59;96.59;102656.97;5032321;28;19925;-46
2021/11/15 01:18:17;;;;;;;;;;;;;;;7.56;96.28;102658.78;5047791;28;19947;-49
2021/11/15 01:20:44;;;;;;;;;;;;;;;7.56;96.13;102661.41;5032666;28;19933;-47
2021/11/15 01:23:11;;;;;;;;;;;;;;;7.52;95.39;102660.59;5032247;28;19979;-47
2021/11/15 01:25:38;;;;;;;;;;;;;;;7.60;95.92;102673.53;5032369;28;19925;-47
2021/11/15 01:28:05;;;;;;;;;;;;;;;7.50;96.42;102675.50;5031041;28;19925;-49
2021/11/15 01:30:32;;;;;;;;;;;;;;;7.46;96.83;102663.38;5032152;28;19969;-48
2021/11/15 01:32:58;;;;;;;;;;;;;;;7.49;96.96;102663.31;5032129;28;19925;-46
2021/11/15 01:35:25;;;;;;;;;;;;;;;7.52;97.28;102670.22;5030377;28;20285;-45
2021/11/15 01:37:53;;;;;;;;;;;;;;;7.52;97.46;102667.63;5030199;28;19925;-47
2021/11/15 01:40:20;;;;;;;;;;;;;;;7.54;98.06;102671.91;5030772;28;19925;-50
2021/11/15 01:42:47;;;;;;;;;;;;;;;7.47;97.69;102666.84;5032310;28;19925;-50
2021/11/15 01:45:17;;;;;;;;;;;;;;;7.48;97.45;102673.81;5047309;28;19929;-46
2021/11/15 01:47:43;;;;;;;;;;;;;;;7.40;96.84;102673.97;5032142;28;19925;-49
2021/11/15 01:50:11;;;;;;;;;;;;;;;7.38;96.94;102665.31;5030950;28;20418;-49
2021/11/15 01:52:38;;;;;;;;;;;;;;;7.44;96.80;102675.63;5047364;28;19932;-46
2021/11/15 01:55:05;;;;;;;;;;;;;;;7.41;97.28;102671.31;5032077;28;20424;-50
2021/11/15 01:57:35;;;;;;;;;;;;;;;7.44;96.77;102670.41;5047106;28;19932;-47
2021/11/15 02:00:09;;;;;;;;;;;;;;;7.44;97.11;102660.81;5030013;28;19932;-47
2021/11/15 02:02:36;;;;;;;;;;;;;;;7.43;97.35;102663.44;5027047;28;19935;-51
2021/11/15 02:05:03;;;;;;;;;;;;;;;7.41;97.49;102654.78;5047164;28;19925;-48
2021/11/15 02:07:29;;;;;;;;;;;;;;;7.37;97.85;102655.75;5031931;28;19945;-49
2021/11/15 02:09:56;;;;;;;;;;;;;;;7.47;96.47;102654.63;5031878;28;19979;-46
2021/11/15 02:12:24;;;;;;;;;;;;;;;7.30;97.34;102651.53;5031982;28;19925;-49
2021/11/15 02:14:52;;;;;;;;;;;;;;;7.34;97.06;102655.81;5032887;28;19925;-47
2021/11/15 02:17:18;;;;;;;;;;;;;;;7.37;97.08;102653.13;5034535;28;20288;-49
2021/11/15 02:19:45;;;;;;;;;;;;;;;7.46;96.72;102647.69;5035216;28;19929;-47
2021/11/15 02:22:12;;;;;;;;;;;;;;;7.43;96.94;102645.09;5050281;28;20376;-49
2021/11/15 02:24:39;;;;;;;;;;;;;;;7.48;96.95;102640.63;5034074;28;20439;-50
2021/11/15 02:27:06;;;;;;;;;;;;;;;7.47;96.98;102643.28;5033961;28;19925;-45
2021/11/15 02:29:33;;;;;;;;;;;;;;;7.43;97.16;102637.25;5035481;28;20439;-45
2021/11/15 02:31:59;;;;;;;;;;;;;;;7.40;97.33;102638.22;5035546;28;20396;-46
2021/11/15 02:34:26;;;;;;;;;;;;;;;7.40;97.66;102632.09;5035145;28;20021;-47
2021/11/15 02:36:54;;;;;;;;;;;;;;;7.41;97.42;102634.69;5035152;28;20253;-46
2021/11/15 02:39:20;;;;;;;;;;;;;;;7.38;97.28;102631.28;5034986;28;19925;-47
2021/11/15 02:41:47;;;;;;;;;;;;;;;7.42;97.21;102633.78;5034824;28;19987;-47
2021/11/15 02:44:14;;;;;;;;;;;;;;;7.41;97.82;102626.81;5031884;28;19971;-50
2021/11/15 02:46:41;;;;;;;;;;;;;;;7.41;97.52;102623.34;5031105;28;20380;-49
2021/11/15 02:49:07;;;;;;;;;;;;;;;7.35;97.88;102621.75;5033781;28;19929;-50
2021/11/15 02:51:34;;;;;;;;;;;;;;;7.37;97.68;102619.09;5034809;28;19925;-50
2021/11/15 02:54:01;;;;;;;;;;;;;;;7.35;97.63;102626.97;5034751;28;19925;-48
2021/11/15 02:56:27;;;;;;;;;;;;;;;7.37;97.88;102625.19;5034751;28;19925;-48
2021/11/15 02:58:54;;;;;;;;;;;;;;;7.33;97.54;102620.06;5034751;28;19971;-44
2021/11/15 03:01:21;;;;;;;;;;;;;;;7.33;97.81;102622.69;5034818;28;19925;-50
2021/11/15 03:03:48;;;;;;;;;;;;;;;7.25;98.42;102620.22;5034399;28;19925;-46
2021/11/15 03:06:15;;;;;;;;;;;;;;;7.31;98.21;102621.84;5034551;28;19979;-46
2021/11/15 03:08:41;;;;;;;;;;;;;;;7.25;98.56;102628.97;5034626;28;19929;-46
2021/11/15 03:11:08;;;;;;;;;;;;;;;7.25;98.62;102621.09;5031762;28;20012;-46
2021/11/15 03:13:36;;;;;;;;;;;;;;;7.23;98.47;102625.50;5032054;28;19925;-46
2021/11/15 03:16:03;;;;;;;;;;;;;;;7.23;98.91;102622.88;5033027;28;20347;-47
2021/11/15 03:18:31;;;;;;;;;;;;;;;7.19;98.74;102623.84;5034325;28;19932;-48
2021/11/15 03:21:02;;;;;;;;;;;;;;;7.15;98.70;102618.72;5049524;28;19925;-46
2021/11/15 03:23:30;;;;;;;;;;;;;;;7.17;98.99;102622.16;5032621;28;19928;-47
2021/11/15 03:25:57;;;;;;;;;;;;;;;7.20;98.70;102622.97;5033524;28;19936;-45
2021/11/15 03:28:29;;;;;;;;;;;;;;;7.16;98.42;102628.28;5049566;28;20384;-45
2021/11/15 03:30:58;;;;;;;;;;;;;;;7.16;98.15;102631.78;5034016;28;19925;-47
2021/11/15 03:33:26;;;;;;;;;;;;;;;7.11;98.43;102623.16;5033935;28;20028;-50
2021/11/15 03:35:53;;;;;;;;;;;;;;;7.10;98.02;102630.16;5034087;28;19971;-49
2021/11/15 03:38:19;;;;;;;;;;;;;;;7.15;97.32;102616.97;5033916;28;19933;-49
2021/11/15 03:40:46;;;;;;;;;;;;;;;7.04;97.88;102626.81;5048869;28;19929;-51
2021/11/15 03:43:13;;;;;;;;;;;;;;;6.99;97.92;102620.81;5048971;28;19925;-49
2021/11/15 03:45:40;;;;;;;;;;;;;;;6.99;97.85;102620.81;5033763;28;19955;-48
2021/11/15 03:48:08;;;;;;;;;;;;;;;6.97;98.43;102622.59;5033738;28;19935;-48
2021/11/15 03:50:35;;;;;;;;;;;;;;;6.96;98.58;102616.50;5033734;28;20458;-50
2021/11/15 03:53:02;;;;;;;;;;;;;;;7.01;98.09;102619.88;5048870;28;19933;-49
2021/11/15 03:55:29;;;;;;;;;;;;;;;7.08;97.56;102620.63;5032849;28;19967;-49
2021/11/15 03:57:56;;;;;;;;;;;;;;;7.05;97.86;102620.69;5033439;28;19975;-47
2021/11/15 04:00:27;;;;;;;;;;;;;;;7.08;97.60;102621.47;5033516;28;19932;-50
2021/11/15 04:02:56;;;;;;;;;;;;;;;7.02;97.72;102626.84;5033157;28;20323;-49
2021/11/15 04:05:31;;;;;;;;;;;;;;;7.04;97.89;102629.44;5046168;28;19925;-47
2021/11/15 04:07:58;;;;;;;;;;;;;;;6.91;98.55;102618.34;5029236;28;19936;-46
2021/11/15 04:10:32;;;;;;;;;;;;;;;6.98;98.94;102624.31;5033300;28;19925;-46
2021/11/15 04:13:01;;;;;;;;;;;;;;;6.97;98.98;102623.47;5033381;28;19955;-44
2021/11/15 04:15:27;;;;;;;;;;;;;;;6.96;99.03;102628.72;5033305;28;20328;-46
2021/11/15 04:17:54;;;;;;;;;;;;;;;6.97;98.87;102633.94;5033096;28;19932;-45
2021/11/15 04:20:21;;;;;;;;;;;;;;;7.03;99.22;102635.53;5032689;28;19979;-51
2021/11/15 04:22:48;;;;;;;;;;;;;;;7.08;98.27;102633.69;5047856;28;19937;-43
2021/11/15 04:25:14;;;;;;;;;;;;;;;7.11;97.98;102636.25;5031809;28;19936;-47
2021/11/15 04:27:41;;;;;;;;;;;;;;;7.08;98.02;102637.16;5033058;28;19971;-44
2021/11/15 04:30:09;;;;;;;;;;;;;;;7.07;98.33;102640.66;5033016;28;20342;-47
2021/11/15 04:32:38;;;;;;;;;;;;;;;7.09;98.16;102643.28;5043739;28;19925;-49
2021/11/15 04:35:06;;;;;;;;;;;;;;;7.05;97.89;102636.38;5012806;28;20331;-47
2021/11/15 04:37:33;;;;;;;;;;;;;;;7.11;97.69;102631.00;5047300;28;19933;-45
2021/11/15 04:40:00;;;;;;;;;;;;;;;7.15;97.71;102631.81;5048117;28;19991;-46
2021/11/15 04:42:26;;;;;;;;;;;;;;;7.13;97.52;102634.47;5031729;28;20380;-46
2021/11/15 04:44:53;;;;;;;;;;;;;;;7.10;97.36;102630.16;5031929;28;19932;-46
2021/11/15 04:47:20;;;;;;;;;;;;;;;7.09;97.64;102636.28;5032877;28;19929;-46
2021/11/15 04:49:46;;;;;;;;;;;;;;;7.08;97.74;102629.31;5032491;28;19926;-46
2021/11/15 04:52:14;;;;;;;;;;;;;;;7.04;97.84;102632.91;5028735;28;19925;-45
2021/11/15 04:54:41;;;;;;;;;;;;;;;7.07;98.19;102624.97;5030404;28;19925;-47
2021/11/15 04:57:07;;;;;;;;;;;;;;;7.06;97.45;102628.50;5031420;28;19971;-48
2021/11/15 04:59:34;;;;;;;;;;;;;;;7.02;97.59;102623.34;5031518;28;19970;-48
2021/11/15 05:02:00;;;;;;;;;;;;;;;7.06;97.43;102622.38;5032848;28;19967;-50
2021/11/15 05:04:27;;;;;;;;;;;;;;;7.12;97.07;102627.50;5032673;28;19949;-44
2021/11/15 05:06:54;;;;;;;;;;;;;;;7.05;97.38;102626.78;5032732;28;19932;-50
2021/11/15 05:09:21;;;;;;;;;;;;;;;6.98;97.89;102624.31;5031197;28;19925;-48
2021/11/15 05:11:48;;;;;;;;;;;;;;;7.01;98.05;102624.25;5047669;28;20257;-46
2021/11/15 05:14:15;;;;;;;;;;;;;;;7.00;98.15;102626.00;5047655;28;20377;-46
2021/11/15 05:16:41;;;;;;;;;;;;;;;6.93;97.57;102622.66;5032771;28;20392;-48
2021/11/15 05:19:08;;;;;;;;;;;;;;;7.00;97.82;102630.38;5047773;28;19929;-50
2021/11/15 05:21:35;;;;;;;;;;;;;;;6.94;98.29;102632.25;5032401;28;19933;-50
2021/11/15 05:24:02;;;;;;;;;;;;;;;7.00;97.88;102627.78;5030778;28;19956;-48
2021/11/15 05:26:28;;;;;;;;;;;;;;;6.96;98.59;102628.72;5029340;28;19933;-49
2021/11/15 05:28:56;;;;;;;;;;;;;;;6.97;98.74;102630.44;5047215;28;19929;-45
2021/11/15 05:31:23;;;;;;;;;;;;;;;6.99;97.71;102629.50;5031148;28;20393;-50
2021/11/15 05:33:49;;;;;;;;;;;;;;;7.06;97.58;102635.47;5030962;28;19968;-49
2021/11/15 05:36:16;;;;;;;;;;;;;;;6.97;97.52;102628.69;5047450;28;19929;-46
2021/11/15 05:38:42;;;;;;;;;;;;;;;6.94;98.03;102637.47;5032405;28;20438;-44
2021/11/15 05:41:09;;;;;;;;;;;;;;;6.98;97.86;102634.78;5030693;28;19932;-46
2021/11/15 05:43:36;;;;;;;;;;;;;;;6.98;97.89;102634.78;5031921;28;19967;-46
2021/11/15 05:46:03;;;;;;;;;;;;;;;6.90;98.21;102630.59;5032326;28;20007;-47
2021/11/15 05:48:29;;;;;;;;;;;;;;;6.93;98.30;102637.50;5032379;28;19979;-46
2021/11/15 05:50:56;;;;;;;;;;;;;;;6.97;98.23;102633.03;5034879;28;20416;-45
2021/11/15 05:53:23;;;;;;;;;;;;;;;7.00;97.61;102639.09;5035870;28;19929;-45
2021/11/15 05:55:49;;;;;;;;;;;;;;;6.93;98.40;102637.50;5036033;28;19925;-46
2021/11/15 05:58:16;;;;;;;;;;;;;;;6.85;98.71;102635.03;5035831;28;19953;-45
2021/11/15 06:00:43;;;;;;;;;;;;;;;6.89;98.73;102635.84;5034588;28;19929;-47
2021/11/15 06:03:10;;;;;;;;;;;;;;;6.89;98.85;102633.22;5035248;28;19956;-49
2021/11/15 06:05:37;;;;;;;;;;;;;;;6.82;99.09;102637.72;5033878;28;19975;-47
2021/11/15 06:08:04;;;;;;;;;;;;;;;6.88;99.02;102634.13;5050806;28;19925;-45
2021/11/15 06:10:31;;;;;;;;;;;;;;;6.85;98.79;102631.56;5035464;28;19925;-50
2021/11/15 06:12:58;;;;;;;;;;;;;;;6.85;99.07;102637.66;5034753;28;19933;-52
2021/11/15 06:15:25;;;;;;;;;;;;;;;6.94;99.09;102637.47;5034991;28;19925;-54
2021/11/15 06:17:51;;;;;;;;;;;;;;;6.86;99.33;102638.53;5035321;28;19948;-49
2021/11/15 06:20:18;;;;;;;;;;;;;;;6.88;99.72;102631.50;5034341;28;20403;-52
2021/11/15 06:22:45;;;;;;;;;;;;;;;6.85;99.87;102634.19;5035270;28;19929;-52
2021/11/15 06:25:12;;;;;;;;;;;;;;;6.90;99.68;102633.19;5034352;28;19940;-50
2021/11/15 06:27:39;;;;;;;;;;;;;;;6.88;99.91;102631.50;5034434;28;19940;-54
2021/11/15 06:30:07;;;;;;;;;;;;;;;6.88;99.86;102639.34;5034315;28;19932;-51
2021/11/15 06:32:34;;;;;;;;;;;;;;;6.81;100.00;102638.63;5035552;28;19975;-52
2021/11/15 06:35:01;;;;;;;;;;;;;;;6.86;100.00;102642.00;5051014;28;19925;-48
2021/11/15 06:37:27;;;;;;;;;;;;;;;6.79;100.00;102647.38;5035570;28;20360;-48
2021/11/15 06:39:54;;;;;;;;;;;;;;;6.74;100.00;102663.19;5035025;28;19936;-52
2021/11/15 06:42:21;;;;;;;;;;;;;;;6.77;100.00;102663.09;5034010;28;19929;-54
2021/11/15 06:44:47;;;;;;;;;;;;;;;6.78;100.00;102659.59;5034178;28;20372;-51
2021/11/15 06:47:14;;;;;;;;;;;;;;;6.74;100.00;102661.41;5035189;28;19926;-53
2021/11/15 06:49:41;;;;;;;;;;;;;;;6.76;100.00;102662.25;5050485;28;19926;-53
2021/11/15 06:52:08;;;;;;;;;;;;;;;6.81;100.00;102671.75;5034983;28;20028;-51
2021/11/15 06:54:34;;;;;;;;;;;;;;;6.77;100.00;102668.34;5034082;28;20392;-51
2021/11/15 06:57:01;;;;;;;;;;;;;;;6.70;100.00;102672.81;5035053;28;19967;-51
2021/11/15 06:59:28;;;;;;;;;;;;;;;6.79;100.00;102665.69;5034464;28;20384;-51
2021/11/15 07:01:54;;;;;;;;;;;;;;;6.74;100.00;102665.78;5032253;28;19932;-53
2021/11/15 07:04:21;;;;;;;;;;;;;;;6.65;100.00;102669.44;5033180;28;19925;-54
2021/11/15 07:06:48;;;;;;;;;;;;;;;6.52;100.00;102671.44;5035132;28;19929;-50
2021/11/15 07:09:14;;;;;;;;;;;;;;;6.57;100.00;102666.97;5034787;28;20352;-51
2021/11/15 07:11:41;;;;;;;;;;;;;;;6.63;100.00;102670.38;5033640;28;19952;-53
2021/11/15 07:14:08;;;;;;;;;;;;;;;6.60;100.00;102676.53;5034669;28;19936;-50
2021/11/15 07:16:35;;;;;;;;;;;;;;;6.51;100.00;102682.78;5033441;28;19925;-50
2021/11/15 07:19:03;;;;;;;;;;;;;;;6.46;100.00;102679.38;5033408;28;20446;-53
2021/11/15 07:21:29;;;;;;;;;;;;;;;6.46;100.00;102684.59;5032833;28;19925;-52
2021/11/15 07:23:56;;;;;;;;;;;;;;;6.46;100.00;102679.38;5034804;28;19934;-52
2021/11/15 07:26:23;;;;;;;;;;;;;;;6.43;100.00;102688.16;5034463;28;19932;-50
2021/11/15 07:28:50;;;;;;;;;;;;;;;6.41;100.00;102681.25;5049747;28;19925;-52
2021/11/15 07:31:17;;;;;;;;;;;;;;;6.33;100.00;102683.13;5033084;28;19932;-50
2021/11/15 07:33:44;;;;;;;;;;;;;;;6.32;100.00;102686.63;5049375;28;19925;-49
2021/11/15 07:36:11;;;;;;;;;;;;;;;6.38;100.00;102678.66;5034290;28;19925;-45
2021/11/15 07:38:37;;;;;;;;;;;;;;;6.38;100.00;102673.44;5033991;28;20339;-46
2021/11/15 07:41:04;;;;;;;;;;;;;;;6.30;100.00;102675.31;5049065;28;20343;-45
2021/11/15 07:43:31;;;;;;;;;;;;;;;6.32;100.00;102678.78;5033820;28;19925;-45
2021/11/15 07:45:59;;;;;;;;;;;;;;;6.33;100.00;102676.13;5048772;28;19925;-47
2021/11/15 07:48:26;;;;;;;;;;;;;;;6.35;100.00;102676.97;5045743;28;20392;-44
2021/11/15 07:50:53;;;;;;;;;;;;;;;6.36;100.00;102683.06;5029483;28;19925;-45
2021/11/15 07:53:19;;;;;;;;;;;;;;;6.22;100.00;102686.78;5033061;28;19925;-47
2021/11/15 07:55:46;;;;;;;;;;;;;;;6.29;100.00;102674.47;5032016;28;19926;-48
2021/11/15 07:58:15;;;;;;;;;;;;;;;6.26;100.00;102682.38;5033727;28;19968;-46
2021/11/15 08:00:42;;;;;;;;;;;;;;;6.20;100.00;102680.72;5048679;28;20364;-49
2021/11/15 08:03:09;;;;;;;;;;;;;;;6.33;100.00;102675.28;5048703;28;19959;-46
2021/11/15 08:05:35;;;;;;;;;;;;;;;6.26;100.00;102682.38;5048786;28;19925;-48
2021/11/15 08:08:02;;;;;;;;;;;;;;;6.30;100.00;102684.03;5048500;28;20392;-48
2021/11/15 08:10:29;;;;;;;;;;;;;;;6.34;100.00;102695.28;5033393;28;19929;-45
2021/11/15 08:12:57;;;;;;;;;;;;;;;6.30;100.00;102686.66;5015550;28;19931;-46
2021/11/15 08:15:24;;;;;;;;;;;;;;;6.26;100.00;102691.06;5033243;28;19926;-47
2021/11/15 08:17:53;;;;;;;;;;;;;;;6.23;100.00;102693.75;5033087;28;19971;-49
2021/11/15 08:20:24;;;;;;;;;;;;;;;6.18;100.00;102684.25;5032953;28;19925;-47
2021/11/15 08:22:51;;;;;;;;;;;;;;;6.22;100.00;102692.00;5033072;28;19975;-48
2021/11/15 08:25:24;;;;;;;;;;;;;;;6.20;100.00;102685.97;5031882;28;20411;-47
2021/11/15 08:27:52;;;;;;;;;;;;;;;6.13;100.00;102681.72;5032991;28;19925;-47
2021/11/15 08:30:18;;;;;;;;;;;;;;;6.08;100.00;102670.47;5048096;28;19951;-50
2021/11/15 08:32:45;;;;;;;;;;;;;;;6.06;100.00;102669.66;5032408;28;20277;-45
2021/11/15 08:35:12;;;;;;;;;;;;;;;6.07;100.00;102676.59;5030122;28;19933;-44
2021/11/15 08:37:54;;;;;;;;;;;;;;;6.11;100.00;102678.28;5046414;28;20400;-46
2021/11/15 08:40:20;;;;;;;;;;;;;;;6.13;100.00;102675.63;5032682;28;19974;-47
2021/11/15 08:42:47;;;;;;;;;;;;;;;6.16;100.00;102679.06;5032854;28;20376;-48
2021/11/15 08:45:16;;;;;;;;;;;;;;;6.13;100.00;102676.47;5031713;28;19925;-45
2021/11/15 08:47:43;;;;;;;;;;;;;;;6.21;100.00;102674.59;5032825;28;19925;-49
2021/11/15 08:50:10;;;;;;;;;;;;;;;6.29;100.00;102673.63;5032784;28;20427;-48
2021/11/15 08:52:36;;;;;;;;;;;;;;;6.29;100.00;102676.22;5032786;28;19934;-46
2021/11/15 08:55:03;;;;;;;;;;;;;;;6.24;100.00;102674.56;5032722;28;19929;-44
2021/11/15 08:57:30;;;;;;;;;;;;;;;6.25;100.00;102676.25;5031400;28;19971;-47
2021/11/15 08:59:58;;;;;;;;;;;;;;;6.28;100.00;102677.97;5032908;28;19932;-47
2021/11/15 09:02:25;;;;;;;;;;;;;;;6.22;100.00;102676.31;5033033;28;19925;-45
2021/11/15 09:04:53;;;;;;;;;;;;;;;6.24;100.00;102677.19;5047896;28;19937;-46
2021/11/15 09:07:19;;;;;;;;;;;;;;;6.29;100.00;102679.69;5032443;28;19925;-49
2021/11/15 09:09:46;;;;;;;;;;;;;;;6.15;100.00;102674.72;5032557;28;20074;-46
2021/11/15 09:12:15;;;;;;;;;;;;;;;6.16;100.00;102686.91;5032307;28;19933;-46
2021/11/15 09:14:41;;;;;;;;;;;;;;;6.16;100.00;102686.91;5032169;28;19975;-44
2021/11/15 09:17:08;;;;;;;;;;;;;;;6.13;100.00;102689.53;5031245;28;20555;-45
2021/11/15 09:19:35;;;;;;;;;;;;;;;6.20;100.00;102685.97;5032466;28;19936;-44
2021/11/15 09:22:02;;;;;;;;;;;;;;;6.14;100.00;102685.19;5047762;28;19933;-44
2021/11/15 09:24:29;;;;;;;;;;;;;;;6.14;100.00;102680.81;5049784;28;20339;-46
2021/11/15 09:26:57;;;;;;;;;;;;;;;6.19;100.00;102675.50;5036386;28;20032;-46
2021/11/15 09:29:24;;;;;;;;;;;;;;;6.20;100.00;102683.34;5051446;28;19932;-47
2021/11/15 09:31:51;;;;;;;;;;;;;;;6.24;100.00;102679.78;5036034;28;20131;-47
2021/11/15 09:34:18;;;;;;;;;;;;;;;6.29;100.00;102681.47;5036321;28;19925;-49
2021/11/15 09:36:44;;;;;;;;;;;;;;;6.29;100.00;102678.84;5036369;28;19925;-49
2021/11/15 09:39:12;;;;;;;;;;;;;;;6.27;100.00;102684.06;5051380;28;19939;-50
2021/11/15 09:41:39;;;;;;;;;;;;;;;6.25;100.00;102685.88;5051334;28;19933;-47
2021/11/15 09:44:05;;;;;;;;;;;;;;;6.16;100.00;102686.91;5035921;28;19932;-46
2021/11/15 09:46:32;;;;;;;;;;;;;;;6.17;100.00;102692.97;5036084;28;19928;-48
2021/11/15 09:49:04;;;;;;;;;;;;;;;5.99;100.00;102687.16;5036088;28;19936;-46
2021/11/15 09:51:32;;;;;;;;;;;;;;;6.00;100.00;102695.84;5051066;28;19925;-49
2021/11/15 09:53:59;;;;;;;;;;;;;;;5.99;100.00;102694.16;5051142;28;19929;-47
2021/11/15 09:56:26;;;;;;;;;;;;;;;6.06;100.00;102690.53;5035905;28;19979;-48
2021/11/15 09:58:53;;;;;;;;;;;;;;;5.99;100.00;102691.53;5035870;28;19925;-47
2021/11/15 10:01:20;;;;;;;;;;;;;;;6.07;100.00;102687.91;5036257;28;19929;-48
2021/11/15 10:03:47;;;;;;;;;;;;;;;6.14;100.00;102691.28;5035854;28;19925;-50
2021/11/15 10:06:14;;;;;;;;;;;;;;;6.18;100.00;102684.25;5035784;28;19933;-48
2021/11/15 10:08:41;;;;;;;;;;;;;;;6.12;100.00;102686.97;5050872;28;19975;-49
2021/11/15 10:11:08;;;;;;;;;;;;;;;6.18;100.00;102686.88;5050769;28;19975;-48
2021/11/15 10:13:35;;;;;;;;;;;;;;;6.16;100.00;102681.69;5035524;28;19925;-49
2021/11/15 10:16:02;;;;;;;;;;;;;;;6.17;100.00;102683.38;5050958;28;19929;-49
2021/11/15 10:18:29;;;;;;;;;;;;;;;6.15;100.00;102679.06;5035402;28;19931;-49
2021/11/15 10:20:56;;;;;;;;;;;;;;;6.13;100.00;102681.72;5050689;28;19973;-50
2021/11/15 10:23:26;;;;;;;;;;;;;;;6.07;100.00;102679.22;5034149;28;19929;-51
2021/11/15 10:25:57;;;;;;;;;;;;;;;6.09;100.00;102680.03;5034133;28;19929;-53
2021/11/15 10:28:24;;;;;;;;;;;;;;;6.17;100.00;102688.59;5035016;28;19932;-52
2021/11/15 10:30:50;;;;;;;;;;;;;;;6.06;100.00;102686.16;5034929;28;20015;-50
2021/11/15 10:33:18;;;;;;;;;;;;;;;5.97;100.00;102688.94;5032771;28;19979;-50
2021/11/15 10:35:48;;;;;;;;;;;;;;;5.99;100.00;102687.16;5033062;28;19925;-49
2021/11/15 10:38:16;;;;;;;;;;;;;;;6.05;100.00;102687.09;5035604;28;20339;-50
2021/11/15 10:40:44;;;;;;;;;;;;;;;5.99;100.00;102674.13;5050630;28;19928;-50
2021/11/15 10:43:10;;;;;;;;;;;;;;;5.99;100.00;102675.88;5034288;28;19929;-54
2021/11/15 10:45:38;;;;;;;;;;;;;;;5.99;100.00;102681.09;5049798;28;20460;-53
2021/11/15 10:48:09;;;;;;;;;;;;;;;5.99;100.00;102681.09;5033137;28;19983;-50
2021/11/15 10:50:47;;;;;;;;;;;;;;;5.98;100.00;102668.91;5035019;28;19925;-52
2021/11/15 10:53:22;;;;;;;;;;;;;;;6.01;100.00;102667.13;5035144;28;19925;-52
2021/11/15 10:56:10;;;;;;;;;;;;;;;5.97;100.00;102659.31;5049806;28;19925;-52
2021/11/15 10:58:37;;;;;;;;;;;;;;;5.93;100.00;102646.31;5035199;28;19929;-51
2021/11/15 11:01:05;;;;;;;;;;;;;;;5.84;100.00;102653.44;5034144;28;19933;-51
2021/11/15 11:03:32;;;;;;;;;;;;;;;5.86;100.00;102651.66;5033549;28;20296;-50
2021/11/15 11:06:03;;;;;;;;;;;;;;;5.87;100.00;102661.22;5034629;28;19969;-52
2021/11/15 11:08:38;;;;;;;;;;;;;;;5.92;100.00;102662.88;5034921;28;19933;-49
2021/11/15 11:11:08;;;;;;;;;;;;;;;5.85;100.00;102658.66;5035192;28;19925;-52
2021/11/15 11:13:56;;;;;;;;;;;;;;;5.97;100.00;102660.19;5033606;28;19932;-51
2021/11/15 11:16:37;;;;;;;;;;;;;;;6.05;100.00;102652.25;5047661;28;19929;-52
2021/11/15 11:22:37;;;;;;;;;;;;;;;5.84;100.00;102656.06;5033538;28;20400;-51
2021/11/15 11:27:02;;;;;;;;;;;;;;;5.86;100.00;102652.53;5031672;28;19929;-49
2021/11/15 11:29:30;;;;;;;;;;;;;;;5.96;100.00;102644.53;5033460;28;19929;-45
2021/11/15 11:31:58;;;;;;;;;;;;;;;5.95;100.00;102637.59;5049150;28;19925;-48
2021/11/15 11:34:25;;;;;;;;;;;;;;;5.92;100.00;102635.91;5033968;28;20361;-47
2021/11/15 11:36:52;;;;;;;;;;;;;;;5.92;100.00;102630.69;5032713;28;19956;-45
2021/11/15 11:39:19;;;;;;;;;;;;;;;6.11;100.00;102622.53;5032673;28;19929;-47
2021/11/15 11:41:49;;;;;;;;;;;;;;;5.88;100.00;102626.41;5033708;28;20408;-45
2021/11/15 11:44:17;;;;;;;;;;;;;;;5.88;100.00;102618.56;5048481;28;20300;-46
2021/11/15 11:46:44;;;;;;;;;;;;;;;5.82;100.00;102614.31;5033482;28;19929;-49
2021/11/15 11:49:14;;;;;;;;;;;;;;;5.92;100.00;102612.41;5033629;28;19979;-48
2021/11/15 11:51:41;;;;;;;;;;;;;;;5.89;100.00;102605.47;5033584;28;19948;-45
2021/11/15 11:54:08;;;;;;;;;;;;;;;5.89;100.00;102607.19;5033606;28;19925;-49
2021/11/15 11:56:38;;;;;;;;;;;;;;;5.94;100.00;102602.75;5033589;28;19980;-46
2021/11/15 11:59:25;;;;;;;;;;;;;;;5.96;100.00;102605.34;5033523;28;19945;-49
2021/11/15 12:02:02;;;;;;;;;;;;;;;6.07;100.00;102603.47;5033065;28;19947;-51
2021/11/15 12:04:30;;;;;;;;;;;;;;;6.08;100.00;102599.94;5030886;28;20356;-45
2021/11/15 12:06:56;;;;;;;;;;;;;;;5.89;100.00;102594.16;5032593;28;19925;-46
2021/11/15 12:09:23;;;;;;;;;;;;;;;5.91;100.00;102597.59;5033454;28;19929;-45
2021/11/15 12:11:59;;;;;;;;;;;;;;;5.98;100.00;102607.09;5033764;28;19932;-49
2021/11/15 12:14:30;;;;;;;;;;;;;;;5.90;100.00;102607.22;5033219;28;19925;-49
2021/11/15 12:17:07;;;;;;;;;;;;;;;6.00;100.00;102602.72;5033679;28;19972;-53
2021/11/15 12:19:50;;;;;;;;;;;;;;;5.96;100.00;102606.22;5032686;28;20331;-53
2021/11/15 12:22:19;;;;;;;;;;;;;;;5.92;100.00;102618.47;5032669;28;19929;-53
2021/11/15 12:25:07;;;;;;;;;;;;;;;5.96;100.00;102615.78;5033757;28;19929;-50
2021/11/15 12:27:53;;;;;;;;;;;;;;;6.02;100.00;102610.50;5033090;28;20384;-44
2021/11/15 12:30:22;;;;;;;;;;;;;;;6.08;100.00;102620.84;5032095;28;19929;-46
2021/11/15 12:33:08;;;;;;;;;;;;;;;6.04;100.00;102613.94;5052979;28;19925;-45
2021/11/15 12:35:53;;;;;;;;;;;;;;;6.01;100.00;102608.78;5034690;28;20442;-45
2021/11/15 12:38:37;;;;;;;;;;;;;;;5.96;100.00;102610.56;5041961;28;19970;-53
2021/11/15 12:41:05;;;;;;;;;;;;;;;5.93;100.00;102614.97;5037600;28;19925;-54
2021/11/15 12:43:32;;;;;;;;;;;;;;;5.99;99.19;102610.56;5033344;28;20486;-52
2021/11/15 12:46:10;;;;;;;;;;;;;;;5.96;99.68;102600.13;5038102;28;19925;-52
2021/11/15 12:48:41;;;;;;;;;;;;;;;5.87;99.94;102602.00;5039575;28;20004;-48
2021/11/15 12:51:17;;;;;;;;;;;;;;;5.85;100.00;102601.19;5035342;28;20276;-46
2021/11/15 12:53:45;;;;;;;;;;;;;;;5.94;100.00;102597.53;5032479;28;19925;-54